createdAt,value
2023-02-03T00:00:01.507Z,1.13
2023-02-03T00:02:29.144Z,1.00
2023-02-03T00:04:56.816Z,3.00
2023-02-03T00:07:24.559Z,1.63
2023-02-03T00:09:52.421Z,2.93
2023-02-03T00:12:20.088Z,3.03
2023-02-03T00:14:47.768Z,2.90
2023-02-03T00:17:15.873Z,5.17
2023-02-03T00:19:43.552Z,3.53
2023-02-03T00:22:11.190Z,6.20
2023-02-03T00:24:38.915Z,3.10
2023-02-03T00:27:06.642Z,3.03
2023-02-03T00:29:34.565Z,1.77
2023-02-03T00:32:02.490Z,1.83
2023-02-03T00:34:31.378Z,2.37
2023-02-03T00:36:59.422Z,1.03
2023-02-03T00:39:27.122Z,0.90
2023-02-03T00:41:54.795Z,1.93
2023-02-03T00:44:23.686Z,1.97
2023-02-03T00:46:52.207Z,1.27
2023-02-03T00:49:19.858Z,1.43
2023-02-03T00:51:47.527Z,1.07
2023-02-03T00:54:15.436Z,1.67
2023-02-03T00:56:43.320Z,1.37
2023-02-03T00:59:11.215Z,1.00
2023-02-03T01:01:39.027Z,1.07
2023-02-03T01:04:08.064Z,1.03
2023-02-03T01:06:35.750Z,0.30
2023-02-03T01:09:04.699Z,0.60
2023-02-03T01:11:34.936Z,0.47
2023-02-03T01:14:02.620Z,0.93
2023-02-03T01:16:36.272Z,0.67
2023-02-03T01:19:04.518Z,0.73
2023-02-03T01:21:32.517Z,0.60
2023-02-03T01:24:01.163Z,1.23
2023-02-03T01:26:29.224Z,0.97
2023-02-03T01:29:00.335Z,2.30
2023-02-03T01:31:34.929Z,3.85
2023-02-03T01:34:03.005Z,2.70
2023-02-03T01:36:32.505Z,0.83
2023-02-03T01:39:00.308Z,1.70
2023-02-03T01:41:31.889Z,0.83
2023-02-03T01:44:01.023Z,0.90
2023-02-03T01:46:35.947Z,0.50
2023-02-03T01:49:14.593Z,0.67
2023-02-03T01:51:45.612Z,1.73
2023-02-03T01:54:20.545Z,0.80
2023-02-03T01:56:55.384Z,1.47
2023-02-03T01:59:25.912Z,1.17
2023-02-03T02:01:54.966Z,1.20
2023-02-03T02:04:26.166Z,0.83
2023-02-03T02:06:54.312Z,0.60
2023-02-03T02:09:22.006Z,1.03
2023-02-03T02:11:49.633Z,0.63
2023-02-03T02:14:17.461Z,0.80
2023-02-03T02:16:54.104Z,1.40
2023-02-03T02:20:08.331Z,0.97
2023-02-03T02:22:50.907Z,0.50
2023-02-03T02:26:00.489Z,0.57
2023-02-03T02:28:28.102Z,0.47
2023-02-03T02:31:18.702Z,0.93
2023-02-03T02:34:05.355Z,0.30
2023-02-03T02:36:43.683Z,0.37
2023-02-03T02:39:41.037Z,0.30
2023-02-03T02:42:16.673Z,1.20
2023-02-03T02:44:54.937Z,1.97
2023-02-03T02:47:25.050Z,1.97
2023-02-03T02:50:02.507Z,1.60
2023-02-03T02:52:34.385Z,1.03
2023-02-03T02:57:37.384Z,1.30
2023-02-03T03:00:07.120Z,3.20
2023-02-03T03:02:37.175Z,2.30
2023-02-03T03:05:10.024Z,0.63
2023-02-03T03:07:51.180Z,0.73
2023-02-03T03:10:27.602Z,1.53
2023-02-03T03:13:02.083Z,1.17
2023-02-03T03:15:33.269Z,1.10
2023-02-03T03:18:12.092Z,0.52
2023-02-03T03:20:42.976Z,1.33
2023-02-03T03:23:20.886Z,0.97
2023-02-03T03:25:52.933Z,1.30
2023-02-03T03:28:27.119Z,1.90
2023-02-03T03:30:55.177Z,0.80
2023-02-03T03:33:24.312Z,0.80
2023-02-03T03:35:57.585Z,1.20
2023-02-03T03:38:33.692Z,0.27
2023-02-03T03:41:14.162Z,1.37
2023-02-03T03:43:46.019Z,0.53
2023-02-03T03:46:17.694Z,0.77
2023-02-03T03:48:56.042Z,0.50
2023-02-03T03:51:44.324Z,1.30
2023-02-03T03:54:16.753Z,0.73
2023-02-03T03:57:02.069Z,1.47
2023-02-03T03:59:34.921Z,2.00
2023-02-03T04:02:04.885Z,1.70
2023-02-03T04:04:36.399Z,2.47
2023-02-03T04:07:04.089Z,1.08
2023-02-03T04:09:31.907Z,0.87
2023-02-03T04:12:02.168Z,1.50
2023-02-03T04:14:38.849Z,1.77
2023-02-03T04:17:07.115Z,0.60
2023-02-03T04:19:34.861Z,1.47
2023-02-03T04:22:02.489Z,1.63
2023-02-03T04:24:30.128Z,1.23
2023-02-03T04:26:57.800Z,2.10
2023-02-03T04:29:25.542Z,1.43
2023-02-03T04:31:53.220Z,2.10
2023-02-03T04:34:20.922Z,0.93
2023-02-03T04:36:48.549Z,0.80
2023-02-03T04:39:16.182Z,1.70
2023-02-03T04:41:43.838Z,0.97
2023-02-03T04:44:11.543Z,0.90
2023-02-03T04:46:39.197Z,1.00
2023-02-03T04:49:07.057Z,0.80
2023-02-03T04:51:34.746Z,1.10
2023-02-03T04:54:02.507Z,1.00
2023-02-03T04:56:30.152Z,2.30
2023-02-03T04:58:57.767Z,1.17
2023-02-03T05:01:25.443Z,0.73
2023-02-03T05:03:53.215Z,0.73
2023-02-03T05:06:30.049Z,0.87
2023-02-03T05:08:57.925Z,1.53
2023-02-03T05:11:25.736Z,1.57
2023-02-03T05:13:55.626Z,1.30
2023-02-03T05:16:23.490Z,1.20
2023-02-03T05:18:51.370Z,1.20
2023-02-03T05:21:19.362Z,1.70
2023-02-03T05:23:46.999Z,1.03
2023-02-03T05:26:14.646Z,1.20
2023-02-03T05:28:42.312Z,0.63
2023-02-03T05:31:10.105Z,2.03
2023-02-03T05:33:37.821Z,1.67
2023-02-03T05:36:05.752Z,2.03
2023-02-03T05:38:33.395Z,1.33
2023-02-03T05:41:18.708Z,1.03
2023-02-03T05:43:46.410Z,2.00
2023-02-03T05:46:14.201Z,2.67
2023-02-03T05:48:41.948Z,1.37
2023-02-03T05:51:09.574Z,1.33
2023-02-03T05:53:37.231Z,1.17
2023-02-03T05:56:05.027Z,2.00
2023-02-03T05:58:32.678Z,1.80
2023-02-03T06:01:00.312Z,0.97
2023-02-03T06:03:28.075Z,1.97
2023-02-03T06:05:55.759Z,2.60
2023-02-03T06:08:23.417Z,1.13
2023-02-03T06:10:51.081Z,1.37
2023-02-03T06:13:18.735Z,1.37
2023-02-03T06:15:46.369Z,1.20
2023-02-03T06:18:14.037Z,2.07
2023-02-03T06:20:41.747Z,1.70
2023-02-03T06:23:09.438Z,1.37
2023-02-03T06:25:37.150Z,2.73
2023-02-03T06:28:05.076Z,3.63
2023-02-03T06:30:32.843Z,2.97
2023-02-03T06:33:00.556Z,3.17
2023-02-03T06:35:28.480Z,3.07
2023-02-03T06:37:56.226Z,3.10
2023-02-03T06:40:23.900Z,2.17
2023-02-03T06:42:51.907Z,1.77
2023-02-03T06:45:19.917Z,2.33
2023-02-03T06:47:47.645Z,1.10
2023-02-03T06:50:16.390Z,1.70
2023-02-03T06:52:44.451Z,2.47
2023-02-03T06:55:12.219Z,3.20
2023-02-03T06:57:47.878Z,3.60
2023-02-03T07:00:19.291Z,2.93
2023-02-03T07:02:47.778Z,2.90
2023-02-03T07:05:15.425Z,3.50
2023-02-03T07:07:43.142Z,4.53
2023-02-03T07:10:11.154Z,2.67
2023-02-03T07:12:38.850Z,2.87
2023-02-03T07:15:07.183Z,3.00
2023-02-03T07:17:34.870Z,3.57
2023-02-03T07:20:02.519Z,2.90
2023-02-03T07:22:30.163Z,2.67
2023-02-03T07:24:58.024Z,3.93
2023-02-03T07:27:25.777Z,2.47
2023-02-03T07:29:53.443Z,1.27
2023-02-03T07:32:21.224Z,1.53
2023-02-03T07:34:48.898Z,3.53
2023-02-03T07:37:16.570Z,1.83
2023-02-03T07:39:44.225Z,3.83
2023-02-03T07:42:11.907Z,3.53
2023-02-03T07:44:44.917Z,2.43
2023-02-03T07:47:12.712Z,2.63
2023-02-03T07:49:40.470Z,3.20
2023-02-03T07:52:08.217Z,2.37
2023-02-03T07:54:35.899Z,2.73
2023-02-03T07:57:03.511Z,2.33
2023-02-03T07:59:31.236Z,1.27
2023-02-03T08:01:58.935Z,2.17
2023-02-03T08:04:26.603Z,2.13
2023-02-03T08:06:54.320Z,2.30
2023-02-03T08:09:22.002Z,2.00
2023-02-03T08:11:49.742Z,1.40
2023-02-03T08:14:17.467Z,2.20
2023-02-03T08:16:46.127Z,1.37
2023-02-03T08:19:14.185Z,3.03
2023-02-03T08:21:41.845Z,8.37
2023-02-03T08:24:09.910Z,8.13
2023-02-03T08:26:38.464Z,3.77
2023-02-03T08:29:06.171Z,2.60
2023-02-03T08:31:33.989Z,3.47
2023-02-03T08:34:01.692Z,2.80
2023-02-03T08:36:29.392Z,2.60
2023-02-03T08:38:57.083Z,2.87
2023-02-03T08:41:24.765Z,5.37
2023-02-03T08:43:54.128Z,4.00
2023-02-03T08:46:22.156Z,3.13
2023-02-03T08:48:49.817Z,2.80
2023-02-03T08:51:18.565Z,2.57
2023-02-03T08:53:46.456Z,2.90
2023-02-03T08:56:14.634Z,2.83
2023-02-03T08:58:42.481Z,1.80
2023-02-03T09:01:16.023Z,2.70
2023-02-03T09:03:43.837Z,2.37
2023-02-03T09:06:13.250Z,1.90
2023-02-03T09:08:40.997Z,2.00
2023-02-03T09:11:13.498Z,2.97
2023-02-03T09:13:45.814Z,3.23
2023-02-03T09:16:17.211Z,2.40
2023-02-03T09:18:45.990Z,2.92
2023-02-03T09:21:27.371Z,2.40
2023-02-03T09:24:04.215Z,2.77
2023-02-03T09:26:32.086Z,2.40
2023-02-03T09:28:59.803Z,2.00
2023-02-03T09:31:27.481Z,3.13
2023-02-03T09:33:55.190Z,2.80
2023-02-03T09:36:22.884Z,2.20
2023-02-03T09:38:50.558Z,2.37
2023-02-03T09:41:25.977Z,2.83
2023-02-03T09:44:23.736Z,2.70
2023-02-03T09:47:03.854Z,3.10
2023-02-03T09:49:34.285Z,3.13
2023-02-03T09:52:28.969Z,3.27
2023-02-03T09:55:11.878Z,3.33
2023-02-03T09:57:51.542Z,3.03
2023-02-03T10:00:31.888Z,2.87
2023-02-03T10:03:02.355Z,4.73
2023-02-03T10:05:44.279Z,3.00
2023-02-03T10:08:45.502Z,3.45
2023-02-03T10:11:22.405Z,3.10
2023-02-03T10:14:03.394Z,3.37
2023-02-03T10:16:44.188Z,3.17
2023-02-03T10:19:20.762Z,4.03
2023-02-03T10:21:55.331Z,3.20
2023-02-03T10:24:31.752Z,3.00
2023-02-03T10:26:59.681Z,2.70
2023-02-03T10:29:42.766Z,3.47
2023-02-03T10:32:12.290Z,2.60
2023-02-03T10:34:40.899Z,3.07
2023-02-03T10:37:29.190Z,3.87
2023-02-03T10:39:58.737Z,2.70
2023-02-03T10:42:46.891Z,3.10
2023-02-03T10:45:14.655Z,3.03
2023-02-03T10:47:56.027Z,3.70
2023-02-03T10:50:31.648Z,3.63
2023-02-03T10:53:33.254Z,3.23
2023-02-03T10:56:11.366Z,3.38
2023-02-03T10:58:41.145Z,3.77
2023-02-03T11:01:13.216Z,3.47
2023-02-03T11:03:44.836Z,3.23
2023-02-03T11:06:14.164Z,2.75
2023-02-03T11:08:44.535Z,2.80
2023-02-03T11:11:24.487Z,3.83
2023-02-03T11:14:18.360Z,3.40
2023-02-03T11:16:47.391Z,3.57
2023-02-03T11:19:21.682Z,3.07
2023-02-03T11:21:56.051Z,3.13
2023-02-03T11:24:34.998Z,3.33
2023-02-03T11:27:17.814Z,5.03
2023-02-03T11:29:52.583Z,2.90
2023-02-03T11:32:37.185Z,4.07
2023-02-03T11:35:14.945Z,3.10
2023-02-03T11:37:46.565Z,3.80
2023-02-03T11:40:26.408Z,4.13
2023-02-03T11:42:54.271Z,5.07
2023-02-03T11:45:43.517Z,5.13
2023-02-03T11:48:29.333Z,4.70
2023-02-03T11:51:08.912Z,4.47
2023-02-03T11:53:56.487Z,3.40
2023-02-03T11:56:31.090Z,3.37
2023-02-03T11:59:23.666Z,3.57
2023-02-03T12:02:22.611Z,3.60
2023-02-03T12:05:12.032Z,2.60
2023-02-03T12:08:10.317Z,3.43
2023-02-03T12:10:56.013Z,3.83
2023-02-03T12:13:41.306Z,3.13
2023-02-03T12:16:56.771Z,3.10
2023-02-03T12:19:33.698Z,2.90
2023-02-03T12:22:32.246Z,3.13
2023-02-03T12:25:28.818Z,3.13
2023-02-03T12:28:33.877Z,2.93
2023-02-03T12:31:12.075Z,3.10
2023-02-03T12:33:45.274Z,2.80
2023-02-03T12:36:47.397Z,3.50
2023-02-03T12:39:27.727Z,2.22
2023-02-03T12:42:13.718Z,2.87
2023-02-03T12:44:59.743Z,2.63
2023-02-03T12:47:41.859Z,2.83
2023-02-03T12:50:40.733Z,3.57
2023-02-03T12:53:19.621Z,4.07
2023-02-03T12:56:10.798Z,3.60
2023-02-03T12:58:45.699Z,3.03
2023-02-03T13:01:25.774Z,3.33
2023-02-03T13:04:04.328Z,2.90
2023-02-03T13:06:49.987Z,3.13
2023-02-03T13:09:30.024Z,3.60
2023-02-03T13:12:09.925Z,1.93
2023-02-03T13:14:43.720Z,2.30
2023-02-03T13:17:29.671Z,3.43
2023-02-03T13:20:01.423Z,3.43
2023-02-03T13:25:16.610Z,2.57
2023-02-03T13:28:07.400Z,3.40
2023-02-03T13:30:55.347Z,2.33
2023-02-03T13:33:43.297Z,2.70
2023-02-03T13:36:26.274Z,2.10
2023-02-03T13:39:02.792Z,2.40
2023-02-03T13:41:44.369Z,2.30
2023-02-03T13:44:19.524Z,2.72
2023-02-03T13:46:52.222Z,2.47
2023-02-03T13:49:26.615Z,3.47
2023-02-03T13:51:54.901Z,2.30
2023-02-03T13:54:37.338Z,3.87
2023-02-03T13:57:19.382Z,2.70
2023-02-03T13:59:48.498Z,2.30
2023-02-03T14:02:25.346Z,3.17
2023-02-03T14:04:56.369Z,2.50
2023-02-03T14:07:36.675Z,2.17
2023-02-03T14:10:13.579Z,2.43
2023-02-03T14:12:50.452Z,2.60
2023-02-03T14:15:28.442Z,2.23
2023-02-03T14:17:58.998Z,3.20
2023-02-03T14:20:26.607Z,2.33
2023-02-03T14:23:06.447Z,2.43
2023-02-03T14:25:39.550Z,2.57
2023-02-03T14:28:13.325Z,3.23
2023-02-03T14:31:06.191Z,2.93
2023-02-03T14:33:49.105Z,2.97
2023-02-03T14:36:29.158Z,3.10
2023-02-03T14:39:01.504Z,2.73
2023-02-03T14:41:47.252Z,3.33
2023-02-03T14:44:39.337Z,2.87
2023-02-03T14:47:31.103Z,2.22
2023-02-03T14:50:17.453Z,2.80
2023-02-03T14:52:54.464Z,2.50
2023-02-03T14:55:22.115Z,2.13
2023-02-03T14:57:57.310Z,3.10
2023-02-03T15:00:26.425Z,2.70
2023-02-03T15:03:09.871Z,2.30
2023-02-03T15:05:38.038Z,2.73
2023-02-03T15:08:05.809Z,2.87
2023-02-03T15:10:44.683Z,4.57
2023-02-03T15:13:29.403Z,3.40
2023-02-03T15:16:04.187Z,4.63
2023-02-03T15:18:41.063Z,4.07
2023-02-03T15:21:18.689Z,2.93
2023-02-03T15:23:49.389Z,2.53
2023-02-03T15:26:24.356Z,3.40
2023-02-03T15:28:59.065Z,3.03
2023-02-03T15:31:50.886Z,3.37
2023-02-03T15:34:28.157Z,3.20
2023-02-03T15:37:02.833Z,2.63
2023-02-03T15:39:41.056Z,3.20
2023-02-03T15:42:18.446Z,3.37
2023-02-03T15:44:57.090Z,3.60
2023-02-03T15:47:32.350Z,3.40
2023-02-03T15:50:20.738Z,2.40
2023-02-03T15:52:49.851Z,2.83
2023-02-03T15:55:40.481Z,4.50
2023-02-03T15:58:16.122Z,4.30
2023-02-03T16:00:43.945Z,4.47
2023-02-03T16:03:21.607Z,3.70
2023-02-03T16:05:50.377Z,4.27
2023-02-03T16:08:41.857Z,3.50
2023-02-03T16:11:35.569Z,3.28
2023-02-03T16:14:06.853Z,5.03
2023-02-03T16:17:04.390Z,3.75
2023-02-03T16:19:38.271Z,4.23
2023-02-03T16:22:06.224Z,4.00
2023-02-03T16:24:37.597Z,4.27
2023-02-03T16:27:26.670Z,3.42
2023-02-03T16:30:12.797Z,4.40
2023-02-03T16:32:58.440Z,3.33
2023-02-03T16:35:43.463Z,3.50
2023-02-03T16:38:36.363Z,3.83
2023-02-03T16:41:28.955Z,3.47
2023-02-03T16:44:14.235Z,4.10
2023-02-03T16:46:59.566Z,4.50
2023-02-03T16:49:44.903Z,4.30
2023-02-03T16:52:12.650Z,4.37
2023-02-03T16:54:40.350Z,4.93
2023-02-03T16:57:08.697Z,3.90
2023-02-03T16:59:36.449Z,3.13
2023-02-03T17:02:04.215Z,3.87
2023-02-03T17:04:31.909Z,4.03
2023-02-03T17:06:59.640Z,3.73
2023-02-03T17:09:27.325Z,4.83
2023-02-03T17:11:54.973Z,4.57
2023-02-03T17:14:22.612Z,4.80
2023-02-03T17:16:50.375Z,4.77
2023-02-03T17:19:18.065Z,4.03
2023-02-03T17:21:45.930Z,4.83
2023-02-03T17:24:13.616Z,3.53
2023-02-03T17:26:41.454Z,4.17
2023-02-03T17:29:11.513Z,5.90
2023-02-03T17:31:39.457Z,5.27
2023-02-03T17:34:07.177Z,4.20
2023-02-03T17:36:34.878Z,4.43
2023-02-03T17:55:34.399Z,4.13
2023-02-03T17:58:02.454Z,3.87
2023-02-03T18:00:30.602Z,6.43
2023-02-03T18:02:58.500Z,5.27
2023-02-03T18:05:26.252Z,4.40
2023-02-03T18:07:53.942Z,4.67
2023-02-03T18:10:21.623Z,4.90
2023-02-03T18:12:49.577Z,5.67
2023-02-03T18:15:17.240Z,4.87
2023-02-03T18:17:44.976Z,4.80
2023-02-03T18:20:13.590Z,3.73
2023-02-03T18:22:41.297Z,4.37
2023-02-03T18:25:09.694Z,4.37
2023-02-03T18:27:37.668Z,2.83
2023-02-03T18:30:06.039Z,4.27
2023-02-03T18:32:33.753Z,4.40
2023-02-03T18:35:01.872Z,4.27
2023-02-03T18:37:29.583Z,4.47
2023-02-03T18:39:57.310Z,3.53
2023-02-03T18:42:25.237Z,3.57
2023-02-03T18:44:53.218Z,4.80
2023-02-03T18:47:20.922Z,3.50
2023-02-03T18:49:48.811Z,4.17
2023-02-03T18:52:16.723Z,4.73
2023-02-03T18:54:44.919Z,4.53
2023-02-03T18:57:15.522Z,5.37
2023-02-03T18:59:43.923Z,4.37
2023-02-03T19:02:12.892Z,4.13
2023-02-03T19:04:40.612Z,3.80
2023-02-03T19:07:08.379Z,3.97
2023-02-03T19:09:36.068Z,4.03
2023-02-03T19:12:04.262Z,3.97
2023-02-03T19:14:32.702Z,3.17
2023-02-03T19:17:00.459Z,2.17
2023-02-03T19:19:28.204Z,4.20
2023-02-03T19:21:55.880Z,3.10
2023-02-03T19:24:24.991Z,3.50
2023-02-03T19:26:52.703Z,3.37
2023-02-03T19:29:20.339Z,3.17
2023-02-03T19:31:48.159Z,3.87
2023-02-03T19:34:17.639Z,3.27
2023-02-03T19:36:47.058Z,4.33
2023-02-03T19:39:15.293Z,3.73
2023-02-03T19:41:42.980Z,3.37
2023-02-03T19:44:10.789Z,3.27
2023-02-03T19:46:38.785Z,4.47
2023-02-03T19:49:13.040Z,5.60
2023-02-03T19:51:41.300Z,3.93
2023-02-03T19:54:12.777Z,3.40
2023-02-03T19:56:40.518Z,4.38
2023-02-03T19:59:09.023Z,2.93
2023-02-03T20:01:36.713Z,3.20
2023-02-03T20:04:05.160Z,5.83
2023-02-03T20:06:32.861Z,4.60
2023-02-03T20:09:00.857Z,4.23
2023-02-03T20:11:29.394Z,3.63
2023-02-03T20:13:57.075Z,4.60
2023-02-03T20:16:24.796Z,3.73
2023-02-03T20:18:52.463Z,3.27
2023-02-03T20:21:20.174Z,3.83
2023-02-03T20:23:47.927Z,4.57
2023-02-03T20:26:15.619Z,4.13
2023-02-03T20:28:44.125Z,4.73
2023-02-03T20:31:11.891Z,4.17
2023-02-03T20:33:39.609Z,4.50
2023-02-03T20:36:07.714Z,4.53
2023-02-03T20:38:35.432Z,2.87
2023-02-03T20:41:03.065Z,4.03
2023-02-03T20:43:31.863Z,3.77
2023-02-03T20:45:59.552Z,3.23
2023-02-03T20:48:27.482Z,2.67
2023-02-03T20:50:55.133Z,3.83
2023-02-03T20:53:27.372Z,6.33
2023-02-03T20:56:01.601Z,4.20
2023-02-03T20:58:31.878Z,2.77
2023-02-03T21:00:59.851Z,3.53
2023-02-03T21:03:45.570Z,4.97
2023-02-03T21:06:16.208Z,3.70
2023-02-03T21:08:45.590Z,1.90
2023-02-03T21:11:20.068Z,4.43
2023-02-03T21:13:49.986Z,3.17
2023-02-03T21:16:27.652Z,3.33
2023-02-03T21:18:56.966Z,3.23
2023-02-03T21:21:40.233Z,3.87
2023-02-03T21:24:27.965Z,3.93
2023-02-03T21:26:57.002Z,3.70
2023-02-03T21:29:34.286Z,5.90
2023-02-03T21:32:02.062Z,3.50
2023-02-03T21:34:31.740Z,3.17
2023-02-03T21:37:08.436Z,5.37
2023-02-03T21:39:36.210Z,3.30
2023-02-03T21:42:42.180Z,3.50
2023-02-03T21:45:15.990Z,3.10
2023-02-03T21:47:48.558Z,3.67
2023-02-03T21:50:41.109Z,4.30
2023-02-03T21:53:12.091Z,4.43
2023-02-03T21:55:41.446Z,3.97
2023-02-03T21:58:21.255Z,3.27
2023-02-03T22:00:49.878Z,3.00
2023-02-03T22:03:24.385Z,2.80
2023-02-03T22:05:52.117Z,3.17
2023-02-03T22:08:24.531Z,1.83
2023-02-03T22:10:52.207Z,4.17
2023-02-03T22:13:20.163Z,3.20
2023-02-03T22:15:48.929Z,6.47
2023-02-03T22:18:16.589Z,3.30
2023-02-03T22:20:44.244Z,4.53
2023-02-03T22:23:12.166Z,6.07
2023-02-03T22:25:39.890Z,3.10
2023-02-03T22:28:07.826Z,3.23
2023-02-03T22:30:35.631Z,3.03
2023-02-03T22:33:03.373Z,3.80
2023-02-03T22:35:31.397Z,4.47
2023-02-03T22:37:59.574Z,7.13
2023-02-03T22:40:27.425Z,2.93
2023-02-03T22:42:55.176Z,1.63
2023-02-03T22:45:22.827Z,2.47
2023-02-03T22:47:50.511Z,3.10
2023-02-03T22:50:24.616Z,6.30
2023-02-03T22:52:58.777Z,4.07
2023-02-03T22:55:26.517Z,5.93
2023-02-03T22:57:54.789Z,4.40
2023-02-03T23:00:25.230Z,2.97
2023-02-03T23:02:52.991Z,3.57
2023-02-03T23:05:20.955Z,4.37
2023-02-03T23:07:48.987Z,2.37
2023-02-03T23:10:30.748Z,3.00
2023-02-03T23:15:29.323Z,3.87
2023-02-03T23:17:57.233Z,2.77
2023-02-03T23:20:25.151Z,14.07
2023-02-03T23:22:52.824Z,2.77
2023-02-03T23:25:20.563Z,5.70
2023-02-03T23:27:48.305Z,5.37
2023-02-03T23:30:17.879Z,2.30
2023-02-03T23:32:45.565Z,3.67
2023-02-03T23:35:30.523Z,2.10
2023-02-03T23:37:58.203Z,1.97
2023-02-03T23:40:25.893Z,6.00
2023-02-03T23:42:53.553Z,3.60
2023-02-03T23:45:21.206Z,5.70
2023-02-03T23:47:48.854Z,2.73
2023-02-03T23:50:19.034Z,2.90
2023-02-03T23:52:47.622Z,1.90
2023-02-03T23:55:18.429Z,2.17
2023-02-03T23:57:46.938Z,1.93
